createdAt,value
2022-08-05T00:00:16.273Z,1.50
2022-08-05T00:02:51.465Z,1.50
2022-08-05T00:06:02.681Z,1.73
2022-08-05T00:08:33.025Z,1.58
2022-08-05T00:11:00.533Z,2.13
2022-08-05T00:13:38.275Z,1.40
2022-08-05T00:16:08.446Z,1.45
2022-08-05T00:18:36.361Z,1.42
2022-08-05T00:21:06.923Z,1.40
2022-08-05T00:23:46.934Z,1.40
2022-08-05T00:26:22.606Z,1.35
2022-08-05T00:28:50.898Z,0.93
2022-08-05T00:31:54.290Z,1.15
2022-08-05T00:34:53.877Z,1.55
2022-08-05T00:37:10.924Z,1.55
2022-08-05T00:39:57.050Z,1.55
2022-08-05T00:42:34.371Z,1.70
2022-08-05T00:45:02.152Z,1.58
2022-08-05T00:47:53.309Z,1.40
2022-08-05T00:50:17.680Z,1.70
2022-08-05T00:52:46.776Z,1.40
2022-08-05T00:55:14.914Z,1.58
2022-08-05T00:57:58.226Z,1.75
2022-08-05T01:00:26.786Z,1.95
2022-08-05T01:02:54.524Z,2.30
2022-08-05T01:05:22.656Z,1.70
2022-08-05T01:08:29.884Z,1.70
2022-08-05T01:10:41.540Z,1.75
2022-08-05T01:13:27.194Z,1.85
2022-08-05T01:16:15.293Z,1.23
2022-08-05T01:18:56.474Z,1.50
2022-08-05T01:21:38.031Z,1.80
2022-08-05T01:24:13.065Z,1.20
2022-08-05T01:26:48.906Z,1.70
2022-08-05T01:29:23.079Z,1.80
2022-08-05T01:31:52.131Z,1.67
2022-08-05T01:34:21.754Z,1.92
2022-08-05T01:36:55.981Z,2.05
2022-08-05T01:39:47.358Z,1.80
2022-08-05T01:42:17.177Z,1.77
2022-08-05T01:44:54.177Z,1.48
2022-08-05T01:47:23.206Z,2.38
2022-08-05T01:50:01.667Z,1.90
2022-08-05T01:52:31.222Z,2.05
2022-08-05T01:55:04.393Z,1.85
2022-08-05T01:58:12.459Z,1.83
2022-08-05T02:00:30.324Z,2.05
2022-08-05T02:03:00.572Z,2.00
2022-08-05T02:05:35.857Z,1.90
2022-08-05T02:08:04.689Z,2.05
2022-08-05T02:10:34.753Z,2.30
2022-08-05T02:13:04.669Z,2.25
2022-08-05T02:15:45.037Z,2.20
2022-08-05T02:18:32.236Z,2.35
2022-08-05T02:21:04.401Z,2.17
2022-08-05T02:23:35.917Z,2.17
2022-08-05T02:26:08.849Z,2.20
2022-08-05T02:28:45.814Z,2.03
2022-08-05T02:31:16.466Z,1.73
2022-08-05T02:33:48.542Z,2.50
2022-08-05T02:36:17.953Z,2.05
2022-08-05T02:38:53.167Z,2.45
2022-08-05T02:41:22.963Z,2.53
2022-08-05T02:44:02.347Z,2.22
2022-08-05T02:46:53.582Z,2.00
2022-08-05T02:49:24.558Z,1.77
2022-08-05T02:52:03.665Z,2.50
2022-08-05T02:54:36.109Z,2.33
2022-08-05T02:57:09.763Z,3.40
2022-08-05T02:59:50.310Z,2.47
2022-08-05T03:02:20.893Z,2.00
2022-08-05T03:04:53.324Z,2.00
2022-08-05T03:07:59.467Z,2.05
2022-08-05T03:10:10.715Z,1.88
2022-08-05T03:12:42.116Z,2.35
2022-08-05T03:15:12.476Z,1.88
2022-08-05T03:17:44.742Z,2.40
2022-08-05T03:20:13.645Z,2.40
2022-08-05T03:22:46.938Z,2.63
2022-08-05T03:25:33.115Z,2.40
2022-08-05T03:28:08.262Z,2.13
2022-08-05T03:30:36.606Z,2.08
2022-08-05T03:33:07.518Z,1.85
2022-08-05T03:35:41.139Z,2.35
2022-08-05T03:38:11.498Z,2.28
2022-08-05T03:40:40.968Z,1.52
2022-08-05T03:43:59.004Z,1.98
2022-08-05T03:45:57.769Z,2.20
2022-08-05T03:48:29.125Z,1.88
2022-08-05T03:52:48.889Z,2.30
2022-08-05T03:55:52.579Z,2.53
2022-08-05T03:56:41.450Z,1.83
2022-08-05T03:59:11.017Z,2.60
2022-08-05T04:01:43.498Z,2.10
2022-08-05T04:04:16.806Z,1.92
2022-08-05T04:06:51.307Z,2.75
2022-08-05T04:09:20.373Z,3.05
2022-08-05T04:11:53.921Z,2.28
2022-08-05T04:14:30.646Z,2.00
2022-08-05T04:16:59.596Z,1.73
2022-08-05T04:19:28.752Z,2.10
2022-08-05T04:22:05.736Z,2.25
2022-08-05T04:24:38.281Z,2.10
2022-08-05T04:27:12.001Z,1.95
2022-08-05T04:29:39.898Z,1.98
2022-08-05T04:32:08.098Z,2.20
2022-08-05T04:34:42.902Z,2.25
2022-08-05T04:37:11.350Z,2.40
2022-08-05T04:39:39.224Z,2.03
2022-08-05T04:42:08.311Z,2.20
2022-08-05T04:44:36.865Z,2.08
2022-08-05T04:47:09.179Z,2.65
2022-08-05T04:50:02.635Z,2.22
2022-08-05T04:52:27.439Z,2.08
2022-08-05T04:54:57.283Z,2.40
2022-08-05T04:57:28.942Z,2.10
2022-08-05T04:59:58.619Z,2.55
2022-08-05T05:02:37.136Z,1.98
2022-08-05T05:05:26.344Z,1.98
2022-08-05T05:08:01.573Z,1.33
2022-08-05T05:10:29.917Z,2.65
2022-08-05T05:12:57.665Z,1.95
2022-08-05T05:15:56.236Z,1.50
2022-08-05T05:18:14.846Z,2.50
2022-08-05T05:20:56.957Z,2.70
2022-08-05T05:23:26.220Z,2.25
2022-08-05T05:25:53.910Z,2.83
2022-08-05T05:28:21.580Z,1.92
2022-08-05T05:30:49.670Z,2.55
2022-08-05T05:33:17.904Z,2.30
2022-08-05T05:35:51.202Z,2.15
2022-08-05T05:38:22.843Z,3.38
2022-08-05T05:40:55.700Z,2.50
2022-08-05T05:43:54.626Z,2.35
2022-08-05T05:46:17.395Z,2.40
2022-08-05T05:48:48.341Z,1.95
2022-08-05T05:51:23.178Z,2.50
2022-08-05T05:53:57.818Z,2.50
2022-08-05T05:56:32.656Z,3.03
2022-08-05T05:59:03.275Z,1.48
2022-08-05T06:01:37.495Z,2.05
2022-08-05T06:04:06.889Z,2.25
2022-08-05T06:06:35.100Z,2.10
2022-08-05T06:09:04.335Z,2.22
2022-08-05T06:11:32.006Z,1.67
2022-08-05T06:14:00.486Z,1.77
2022-08-05T06:16:36.643Z,1.63
2022-08-05T06:19:05.826Z,1.40
2022-08-05T06:21:36.625Z,1.60
2022-08-05T06:24:11.774Z,1.30
2022-08-05T06:26:51.095Z,2.10
2022-08-05T06:29:43.206Z,1.70
2022-08-05T06:32:21.081Z,1.45
2022-08-05T06:34:56.292Z,1.88
2022-08-05T06:37:57.561Z,1.60
2022-08-05T06:40:18.377Z,1.75
2022-08-05T06:42:51.950Z,1.40
2022-08-05T06:45:43.914Z,1.90
2022-08-05T06:48:37.182Z,1.83
2022-08-05T06:50:56.248Z,1.73
2022-08-05T06:53:28.481Z,1.73
2022-08-05T06:55:58.235Z,1.83
2022-08-05T06:58:34.995Z,1.50
2022-08-05T07:01:04.923Z,1.30
2022-08-05T07:03:33.278Z,1.80
2022-08-05T07:06:05.461Z,1.48
2022-08-05T07:08:41.850Z,1.35
2022-08-05T07:11:15.250Z,1.20
2022-08-05T07:14:01.335Z,1.17
2022-08-05T07:17:56.776Z,1.40
2022-08-05T07:22:28.730Z,1.63
2022-08-05T07:24:58.391Z,1.33
2022-08-05T07:27:58.421Z,1.50
2022-08-05T07:30:27.292Z,1.70
2022-08-05T07:32:58.630Z,1.48
2022-08-05T07:36:04.656Z,1.40
2022-08-05T07:38:32.209Z,1.45
2022-08-05T07:41:16.778Z,1.38
2022-08-05T07:43:51.500Z,1.20
2022-08-05T07:46:25.173Z,0.80
2022-08-05T07:49:03.126Z,1.40
2022-08-05T07:51:48.734Z,0.82
2022-08-05T07:54:30.187Z,1.10
2022-08-05T07:57:02.422Z,1.23
2022-08-05T07:59:46.936Z,1.67
2022-08-05T08:02:17.864Z,1.33
2022-08-05T08:04:47.205Z,1.65
2022-08-05T08:07:15.414Z,1.20
2022-08-05T08:09:43.252Z,1.10
2022-08-05T08:12:29.706Z,1.00
2022-08-05T08:15:02.276Z,1.30
2022-08-05T08:17:30.521Z,1.15
2022-08-05T08:20:43.574Z,1.20
2022-08-05T08:22:51.430Z,1.30
2022-08-05T08:25:26.861Z,1.17
2022-08-05T08:28:07.240Z,0.95
2022-08-05T08:30:49.920Z,0.80
2022-08-05T08:33:19.242Z,1.10
2022-08-05T08:35:53.151Z,0.55
2022-08-05T08:38:37.621Z,1.00
2022-08-05T08:41:08.666Z,1.00
2022-08-05T08:45:22.625Z,1.15
2022-08-05T08:46:27.378Z,0.95
2022-08-05T08:49:06.401Z,0.90
2022-08-05T08:52:03.671Z,1.00
2022-08-05T08:54:34.229Z,0.90
2022-08-05T08:57:05.888Z,1.08
2022-08-05T08:59:41.879Z,1.02
2022-08-05T09:02:18.927Z,1.20
2022-08-05T09:04:58.338Z,1.08
2022-08-05T09:07:39.415Z,0.90
2022-08-05T09:10:27.763Z,1.27
2022-08-05T09:12:55.904Z,1.23
2022-08-05T09:15:23.640Z,0.90
2022-08-05T09:17:54.372Z,1.40
2022-08-05T09:20:37.451Z,1.30
2022-08-05T09:23:18.562Z,1.33
2022-08-05T09:26:03.110Z,0.93
2022-08-05T09:28:33.575Z,1.20
2022-08-05T09:31:44.036Z,0.80
2022-08-05T09:33:56.523Z,1.00
2022-08-05T09:36:27.916Z,1.33
2022-08-05T09:39:02.539Z,0.77
2022-08-05T09:41:33.149Z,0.93
2022-08-05T09:44:05.893Z,0.80
2022-08-05T09:46:36.500Z,1.00
2022-08-05T09:49:19.026Z,0.77
2022-08-05T09:51:48.904Z,0.80
2022-08-05T09:54:29.156Z,0.90
2022-08-05T09:56:57.487Z,0.80
2022-08-05T09:59:29.153Z,0.82
2022-08-05T10:02:04.883Z,0.98
2022-08-05T10:04:38.279Z,0.80
2022-08-05T10:07:20.051Z,0.82
2022-08-05T10:10:04.180Z,0.65
2022-08-05T10:12:49.265Z,0.90
2022-08-05T10:15:20.363Z,0.65
2022-08-05T10:18:04.679Z,1.10
2022-08-05T10:20:35.353Z,1.13
2022-08-05T10:23:03.320Z,0.75
2022-08-05T10:25:31.268Z,0.95
2022-08-05T10:28:13.857Z,0.85
2022-08-05T10:32:52.338Z,0.90
2022-08-05T10:33:35.250Z,0.98
2022-08-05T10:36:06.055Z,1.08
2022-08-05T10:38:34.667Z,0.90
2022-08-05T10:41:05.861Z,1.20
2022-08-05T10:43:41.334Z,1.35
2022-08-05T10:46:10.463Z,0.77
2022-08-05T10:48:57.012Z,0.82
2022-08-05T10:51:57.498Z,0.57
2022-08-05T10:54:47.199Z,1.00
2022-08-05T10:57:32.465Z,0.65
2022-08-05T11:00:18.605Z,1.33
2022-08-05T11:03:23.062Z,0.73
2022-08-05T11:06:08.347Z,0.98
2022-08-05T11:08:38.052Z,0.85
2022-08-05T11:11:25.481Z,0.55
2022-08-05T11:14:09.733Z,0.82
2022-08-05T11:16:56.698Z,0.68
2022-08-05T11:20:10.166Z,0.70
2022-08-05T11:22:33.428Z,0.90
2022-08-05T11:26:05.751Z,0.70
2022-08-05T11:28:26.788Z,0.70
2022-08-05T11:31:53.826Z,0.80
2022-08-05T11:34:08.125Z,0.80
2022-08-05T11:36:53.030Z,0.52
2022-08-05T11:39:39.525Z,0.90
2022-08-05T11:42:18.221Z,0.75
2022-08-05T11:44:53.904Z,0.73
2022-08-05T11:47:48.637Z,0.60
2022-08-05T11:50:14.271Z,1.05
2022-08-05T11:52:43.837Z,0.60
2022-08-05T11:55:13.749Z,0.68
2022-08-05T11:58:09.203Z,0.60
2022-08-05T12:00:38.655Z,0.60
2022-08-05T12:03:28.386Z,0.70
2022-08-05T12:06:06.585Z,0.88
2022-08-05T12:08:50.072Z,0.60
2022-08-05T12:11:20.435Z,0.50
2022-08-05T12:13:55.232Z,0.63
2022-08-05T12:16:27.301Z,0.45
2022-08-05T12:18:56.753Z,0.60
2022-08-05T12:21:30.350Z,0.77
2022-08-05T12:24:04.908Z,0.50
2022-08-05T12:26:33.506Z,0.35
2022-08-05T12:29:03.301Z,0.50
2022-08-05T12:31:40.714Z,0.68
2022-08-05T12:34:20.685Z,0.50
2022-08-05T12:36:53.582Z,0.65
2022-08-05T12:39:22.061Z,0.90
2022-08-05T12:41:51.485Z,0.60
2022-08-05T12:44:33.597Z,0.57
2022-08-05T12:47:02.677Z,0.80
2022-08-05T12:50:04.464Z,0.60
2022-08-05T12:52:35.411Z,0.60
2022-08-05T12:55:17.193Z,0.50
2022-08-05T12:58:38.830Z,0.30
2022-08-05T13:02:04.443Z,0.70
2022-08-05T13:03:21.325Z,0.50
2022-08-05T13:05:50.628Z,0.70
2022-08-05T13:08:20.040Z,0.50
2022-08-05T13:10:50.327Z,0.50
2022-08-05T13:14:06.341Z,0.40
2022-08-05T13:16:12.983Z,0.60
2022-08-05T13:18:51.577Z,0.73
2022-08-05T13:21:19.223Z,0.50
2022-08-05T13:23:50.545Z,0.50
2022-08-05T13:26:18.752Z,0.52
2022-08-05T13:28:47.845Z,0.70
2022-08-05T13:32:02.973Z,0.40
2022-08-05T13:34:23.914Z,0.43
2022-08-05T13:36:53.051Z,0.30
2022-08-05T13:40:14.362Z,0.43
2022-08-05T13:42:14.338Z,0.55
2022-08-05T13:44:45.367Z,0.45
2022-08-05T13:47:36.030Z,0.60
2022-08-05T13:50:04.050Z,0.50
2022-08-05T13:52:35.456Z,0.60
2022-08-05T13:55:07.730Z,0.45
2022-08-05T13:57:51.392Z,0.10
2022-08-05T14:00:27.331Z,0.75
2022-08-05T14:02:56.037Z,0.50
2022-08-05T14:05:48.528Z,0.52
2022-08-05T14:08:21.299Z,0.70
2022-08-05T14:10:59.735Z,0.80
2022-08-05T14:13:48.172Z,0.50
2022-08-05T14:16:16.799Z,0.40
2022-08-05T14:18:44.820Z,0.50
2022-08-05T14:22:06.997Z,0.50
2022-08-05T14:24:00.673Z,0.40
2022-08-05T14:26:35.454Z,0.47
2022-08-05T14:29:03.823Z,0.50
2022-08-05T14:32:03.617Z,0.47
2022-08-05T14:34:19.124Z,0.30
2022-08-05T14:36:51.473Z,0.47
2022-08-05T14:39:23.369Z,0.50
2022-08-05T14:42:19.509Z,0.40
2022-08-05T14:44:40.650Z,0.57
2022-08-05T14:47:09.269Z,0.40
2022-08-05T14:49:59.264Z,0.50
2022-08-05T14:52:50.110Z,0.63
2022-08-05T14:55:13.900Z,0.45
2022-08-05T14:57:54.323Z,0.60
2022-08-05T15:00:27.771Z,0.50
2022-08-05T15:02:56.309Z,0.50
2022-08-05T15:05:30.053Z,0.50
2022-08-05T15:08:18.069Z,0.50
2022-08-05T15:10:59.385Z,0.55
2022-08-05T15:13:44.836Z,0.43
2022-08-05T15:16:14.340Z,0.50
2022-08-05T15:18:41.995Z,0.45
2022-08-05T15:21:14.799Z,0.47
2022-08-05T15:23:48.809Z,0.40
2022-08-05T15:26:32.203Z,0.47
2022-08-05T15:29:02.464Z,0.50
2022-08-05T15:31:34.893Z,0.45
2022-08-05T15:34:18.561Z,0.50
2022-08-05T15:36:50.454Z,0.50
2022-08-05T15:41:00.148Z,0.57
2022-08-05T15:42:54.336Z,0.50
2022-08-05T15:44:55.020Z,0.90
2022-08-05T15:47:23.674Z,0.88
2022-08-05T15:49:59.082Z,0.57
2022-08-05T15:52:52.060Z,0.80
2022-08-05T15:55:16.553Z,0.60
2022-08-05T15:57:44.935Z,0.70
2022-08-05T16:00:16.977Z,0.60
2022-08-05T16:02:54.435Z,0.60
2022-08-05T16:05:22.852Z,0.68
2022-08-05T16:07:57.115Z,0.60
2022-08-05T16:10:25.582Z,0.50
2022-08-05T16:12:56.144Z,0.93
2022-08-05T16:15:32.689Z,0.38
2022-08-05T16:18:04.255Z,0.65
2022-08-05T16:20:36.529Z,0.80
2022-08-05T16:23:05.008Z,0.50
2022-08-05T16:25:36.336Z,0.68
2022-08-05T16:28:06.042Z,0.47
2022-08-05T16:30:36.126Z,0.70
2022-08-05T16:33:03.927Z,0.55
2022-08-05T16:35:32.318Z,0.93
2022-08-05T16:38:16.429Z,0.60
2022-08-05T16:40:55.019Z,0.50
2022-08-05T16:43:24.151Z,0.43
2022-08-05T16:46:04.703Z,0.60
2022-08-05T16:48:40.476Z,0.63
2022-08-05T16:51:08.909Z,0.93
2022-08-05T16:54:05.089Z,0.70
2022-08-05T16:56:25.364Z,0.70
2022-08-05T16:58:52.970Z,0.70
2022-08-05T17:01:22.549Z,0.70
2022-08-05T17:03:52.205Z,1.17
2022-08-05T17:06:20.049Z,0.63
2022-08-05T17:08:52.973Z,0.70
2022-08-05T17:11:23.950Z,0.80
2022-08-05T17:14:00.211Z,0.88
2022-08-05T17:16:35.977Z,1.13
2022-08-05T17:19:07.472Z,0.80
2022-08-05T17:21:37.252Z,0.73
2022-08-05T17:24:18.458Z,0.90
2022-08-05T17:26:53.508Z,0.50
2022-08-05T17:29:33.588Z,0.50
2022-08-05T17:32:11.902Z,0.68
2022-08-05T17:34:46.237Z,0.88
2022-08-05T17:37:29.401Z,0.52
2022-08-05T17:40:04.286Z,0.77
2022-08-05T17:42:33.043Z,0.90
2022-08-05T17:45:18.234Z,0.50
2022-08-05T17:47:53.913Z,0.65
2022-08-05T17:50:28.103Z,0.47
2022-08-05T17:52:56.977Z,0.70
2022-08-05T17:55:34.278Z,0.40
2022-08-05T17:58:06.881Z,0.60
2022-08-05T18:00:35.422Z,1.00
2022-08-05T18:03:04.534Z,0.73
2022-08-05T18:05:36.087Z,0.60
2022-08-05T18:08:04.096Z,0.57
2022-08-05T18:10:33.480Z,0.60
2022-08-05T18:13:01.974Z,0.60
2022-08-05T18:15:38.542Z,0.63
2022-08-05T18:18:11.135Z,0.80
2022-08-05T18:20:39.225Z,0.52
2022-08-05T18:23:11.944Z,0.63
2022-08-05T18:25:45.000Z,0.90
2022-08-05T18:28:16.443Z,0.73
2022-08-05T18:30:44.843Z,0.68
2022-08-05T18:33:14.104Z,0.63
2022-08-05T18:36:00.876Z,0.80
2022-08-05T18:38:30.638Z,0.40
2022-08-05T18:41:55.540Z,0.50
2022-08-05T18:43:48.654Z,0.70
2022-08-05T18:46:20.053Z,0.55
2022-08-05T18:48:52.314Z,0.43
2022-08-05T18:52:06.034Z,0.90
2022-08-05T18:54:25.909Z,0.60
2022-08-05T18:56:55.200Z,0.50
2022-08-05T18:59:44.112Z,0.60
2022-08-05T19:02:38.073Z,0.63
2022-08-05T19:06:05.697Z,0.30
2022-08-05T19:07:50.112Z,1.10
2022-08-05T19:10:18.321Z,0.75
2022-08-05T19:12:54.463Z,0.70
2022-08-05T19:15:56.718Z,0.60
2022-08-05T19:18:20.718Z,0.70
2022-08-05T19:20:52.628Z,0.73
2022-08-05T19:24:04.560Z,0.60
2022-08-05T19:26:08.467Z,0.70
2022-08-05T19:28:41.497Z,1.00
2022-08-05T19:31:09.714Z,0.35
2022-08-05T19:33:48.445Z,0.57
2022-08-05T19:36:26.037Z,0.80
2022-08-05T19:38:54.881Z,0.65
2022-08-05T19:41:58.184Z,0.57
2022-08-05T19:44:14.422Z,0.68
2022-08-05T19:46:43.486Z,0.63
2022-08-05T19:49:12.507Z,0.82
2022-08-05T19:52:08.948Z,0.68
2022-08-05T19:54:34.635Z,0.70
2022-08-05T19:57:06.513Z,0.60
2022-08-05T19:59:56.131Z,0.90
2022-08-05T20:02:25.905Z,0.90
2022-08-05T20:04:55.372Z,0.82
2022-08-05T20:07:48.225Z,0.77
2022-08-05T20:10:15.253Z,0.95
2022-08-05T20:12:46.278Z,0.60
2022-08-05T20:15:48.503Z,0.82
2022-08-05T20:18:10.848Z,0.70
2022-08-05T20:20:55.074Z,0.73
2022-08-05T20:23:39.378Z,0.70
2022-08-05T20:26:16.046Z,0.50
2022-08-05T20:28:45.512Z,1.15
2022-08-05T20:31:13.211Z,0.73
2022-08-05T20:33:42.316Z,0.90
2022-08-05T20:36:11.135Z,0.60
2022-08-05T20:38:40.752Z,0.57
2022-08-05T20:41:27.137Z,0.60
2022-08-05T20:43:58.744Z,0.70
2022-08-05T20:46:29.192Z,0.60
2022-08-05T20:48:56.792Z,0.65
2022-08-05T20:51:24.405Z,0.80
2022-08-05T20:53:56.772Z,0.70
2022-08-05T20:56:28.981Z,0.73
2022-08-05T20:58:59.965Z,0.57
2022-08-05T21:01:39.225Z,0.80
2022-08-05T21:04:10.339Z,0.70
2022-08-05T21:06:45.345Z,0.55
2022-08-05T21:09:15.865Z,0.40
2022-08-05T21:12:08.943Z,1.02
2022-08-05T21:14:34.631Z,0.77
2022-08-05T21:17:03.111Z,1.60
2022-08-05T21:19:46.726Z,0.70
2022-08-05T21:22:18.393Z,0.80
2022-08-05T21:24:52.005Z,0.60
2022-08-05T21:27:20.614Z,0.65
2022-08-05T21:29:54.111Z,0.70
2022-08-05T21:32:23.288Z,0.80
2022-08-05T21:35:06.726Z,0.60
2022-08-05T21:37:41.419Z,0.85
2022-08-05T21:40:13.794Z,0.80
2022-08-05T21:42:45.221Z,0.70
2022-08-05T21:45:24.695Z,0.70
2022-08-05T21:48:02.446Z,0.70
2022-08-05T21:50:34.513Z,0.70
2022-08-05T21:53:16.199Z,0.70
2022-08-05T21:56:05.369Z,0.90
2022-08-05T21:58:34.519Z,0.80
2022-08-05T22:01:05.525Z,0.57
2022-08-05T22:03:52.447Z,0.75
2022-08-05T22:06:35.422Z,0.85
2022-08-05T22:09:14.798Z,0.60
2022-08-05T22:11:46.740Z,0.85
2022-08-05T22:14:35.793Z,0.65
2022-08-05T22:17:05.399Z,0.50
2022-08-05T22:20:02.075Z,0.63
2022-08-05T22:22:26.893Z,0.50
2022-08-05T22:25:21.606Z,0.70
2022-08-05T22:28:08.131Z,0.63
2022-08-05T22:30:56.556Z,0.70
2022-08-05T22:33:57.228Z,0.60
2022-08-05T22:36:14.790Z,0.90
2022-08-05T22:38:43.129Z,0.63
2022-08-05T22:41:10.812Z,0.73
2022-08-05T22:43:41.272Z,0.80
2022-08-05T22:46:13.127Z,0.50
2022-08-05T22:48:51.038Z,0.80
2022-08-05T22:51:22.944Z,0.90
2022-08-05T22:53:51.915Z,0.60
2022-08-05T22:56:30.570Z,0.70
2022-08-05T22:59:04.652Z,0.90
2022-08-05T23:02:03.778Z,0.82
2022-08-05T23:04:33.021Z,0.70
2022-08-05T23:07:00.685Z,0.60
2022-08-05T23:09:57.782Z,0.95
2022-08-05T23:12:17.815Z,0.85
2022-08-05T23:14:47.306Z,0.73
2022-08-05T23:17:32.779Z,0.90
2022-08-05T23:20:16.591Z,0.82
2022-08-05T23:22:47.193Z,0.63
2022-08-05T23:25:17.624Z,0.85
2022-08-05T23:28:03.790Z,0.68
2022-08-05T23:30:40.551Z,0.80
2022-08-05T23:33:16.106Z,0.85
2022-08-05T23:35:50.569Z,1.00
2022-08-05T23:38:18.442Z,1.05
2022-08-05T23:40:49.559Z,0.75
2022-08-05T23:43:25.842Z,0.73
2022-08-05T23:46:19.891Z,0.77
2022-08-05T23:49:00.679Z,0.73
2022-08-05T23:51:53.755Z,0.80
2022-08-05T23:54:25.926Z,0.60
2022-08-05T23:56:55.169Z,0.75
2022-08-05T23:59:23.002Z,0.55
